sensor_id;sensor_type;location;lat;lon;timestamp;P1;durP1;ratioP1;P2;durP2;ratioP2
18395;SDS011;76377;45.194;5.734;2024-03-08T00:01:41;9.63;;;7.20;;
18395;SDS011;76377;45.194;5.734;2024-03-08T00:04:10;11.03;;;7.30;;
18395;SDS011;76377;45.194;5.734;2024-03-08T00:06:38;7.97;;;6.70;;
18395;SDS011;76377;45.194;5.734;2024-03-08T00:09:06;8.50;;;7.47;;
18395;SDS011;76377;45.194;5.734;2024-03-08T00:11:34;8.27;;;7.30;;
18395;SDS011;76377;45.194;5.734;2024-03-08T00:14:03;9.90;;;7.67;;
18395;SDS011;76377;45.194;5.734;2024-03-08T00:16:32;10.43;;;7.83;;
18395;SDS011;76377;45.194;5.734;2024-03-08T00:18:59;10.03;;;7.80;;
18395;SDS011;76377;45.194;5.734;2024-03-08T00:21:26;12.93;;;7.73;;
18395;SDS011;76377;45.194;5.734;2024-03-08T00:23:53;10.63;;;7.10;;
18395;SDS011;76377;45.194;5.734;2024-03-08T00:26:21;10.70;;;7.90;;
18395;SDS011;76377;45.194;5.734;2024-03-08T00:28:48;9.17;;;7.30;;
18395;SDS011;76377;45.194;5.734;2024-03-08T00:31:17;10.03;;;7.53;;
18395;SDS011;76377;45.194;5.734;2024-03-08T00:33:44;8.30;;;6.90;;
18395;SDS011;76377;45.194;5.734;2024-03-08T00:36:12;8.47;;;7.57;;
18395;SDS011;76377;45.194;5.734;2024-03-08T00:38:39;10.83;;;8.20;;
18395;SDS011;76377;45.194;5.734;2024-03-08T00:41:06;10.53;;;7.17;;
18395;SDS011;76377;45.194;5.734;2024-03-08T00:43:34;8.07;;;6.70;;
18395;SDS011;76377;45.194;5.734;2024-03-08T00:46:01;11.27;;;7.37;;
18395;SDS011;76377;45.194;5.734;2024-03-08T00:48:30;7.33;;;6.60;;
18395;SDS011;76377;45.194;5.734;2024-03-08T00:50:57;9.57;;;7.37;;
18395;SDS011;76377;45.194;5.734;2024-03-08T00:53:24;11.90;;;8.07;;
18395;SDS011;76377;45.194;5.734;2024-03-08T00:55:52;8.87;;;6.63;;
18395;SDS011;76377;45.194;5.734;2024-03-08T00:58:20;8.03;;;7.23;;
18395;SDS011;76377;45.194;5.734;2024-03-08T01:00:49;8.83;;;6.77;;
18395;SDS011;76377;45.194;5.734;2024-03-08T01:03:16;7.80;;;7.00;;
18395;SDS011;76377;45.194;5.734;2024-03-08T01:05:45;7.70;;;6.90;;
18395;SDS011;76377;45.194;5.734;2024-03-08T01:08:12;8.17;;;7.10;;
18395;SDS011;76377;45.194;5.734;2024-03-08T01:10:39;8.37;;;6.93;;
18395;SDS011;76377;45.194;5.734;2024-03-08T01:13:06;9.53;;;7.13;;
18395;SDS011;76377;45.194;5.734;2024-03-08T01:15:35;7.90;;;7.10;;
18395;SDS011;76377;45.194;5.734;2024-03-08T01:18:02;7.43;;;6.60;;
18395;SDS011;76377;45.194;5.734;2024-03-08T01:20:30;8.57;;;6.60;;
18395;SDS011;76377;45.194;5.734;2024-03-08T01:22:59;7.73;;;6.80;;
18395;SDS011;76377;45.194;5.734;2024-03-08T01:25:26;8.97;;;6.60;;
18395;SDS011;76377;45.194;5.734;2024-03-08T01:27:54;7.13;;;6.43;;
18395;SDS011;76377;45.194;5.734;2024-03-08T01:30:21;9.03;;;7.17;;
18395;SDS011;76377;45.194;5.734;2024-03-08T01:32:48;7.77;;;6.80;;
18395;SDS011;76377;45.194;5.734;2024-03-08T01:35:15;8.23;;;7.07;;
18395;SDS011;76377;45.194;5.734;2024-03-08T01:37:43;10.93;;;7.43;;
18395;SDS011;76377;45.194;5.734;2024-03-08T01:40:12;8.47;;;7.57;;
18395;SDS011;76377;45.194;5.734;2024-03-08T01:42:39;8.37;;;7.53;;
18395;SDS011;76377;45.194;5.734;2024-03-08T01:45:07;9.93;;;8.03;;
18395;SDS011;76377;45.194;5.734;2024-03-08T01:47:35;9.43;;;8.10;;
18395;SDS011;76377;45.194;5.734;2024-03-08T01:50:03;7.77;;;7.00;;
18395;SDS011;76377;45.194;5.734;2024-03-08T01:52:32;9.40;;;7.93;;
18395;SDS011;76377;45.194;5.734;2024-03-08T01:55:02;8.50;;;7.50;;
18395;SDS011;76377;45.194;5.734;2024-03-08T01:57:36;8.67;;;7.77;;
18395;SDS011;76377;45.194;5.734;2024-03-08T02:00:04;8.53;;;7.67;;
18395;SDS011;76377;45.194;5.734;2024-03-08T02:02:35;8.70;;;7.80;;
18395;SDS011;76377;45.194;5.734;2024-03-08T02:05:05;8.90;;;7.93;;
18395;SDS011;76377;45.194;5.734;2024-03-08T02:07:34;9.33;;;8.03;;
18395;SDS011;76377;45.194;5.734;2024-03-08T02:10:01;9.10;;;7.60;;
18395;SDS011;76377;45.194;5.734;2024-03-08T02:12:29;8.70;;;7.80;;
18395;SDS011;76377;45.194;5.734;2024-03-08T02:14:57;10.33;;;8.70;;
18395;SDS011;76377;45.194;5.734;2024-03-08T02:17:25;10.53;;;8.37;;
18395;SDS011;76377;45.194;5.734;2024-03-08T02:19:52;9.13;;;8.23;;
18395;SDS011;76377;45.194;5.734;2024-03-08T02:22:20;9.13;;;8.23;;
18395;SDS011;76377;45.194;5.734;2024-03-08T02:24:48;10.00;;;8.70;;
18395;SDS011;76377;45.194;5.734;2024-03-08T02:27:16;10.53;;;8.00;;
18395;SDS011;76377;45.194;5.734;2024-03-08T02:29:50;9.37;;;8.37;;
18395;SDS011;76377;45.194;5.734;2024-03-08T02:32:22;10.77;;;8.20;;
18395;SDS011;76377;45.194;5.734;2024-03-08T02:34:49;8.93;;;8.03;;
18395;SDS011;76377;45.194;5.734;2024-03-08T02:37:17;8.67;;;7.77;;
18395;SDS011;76377;45.194;5.734;2024-03-08T02:39:45;9.53;;;8.20;;
18395;SDS011;76377;45.194;5.734;2024-03-08T02:42:13;9.83;;;8.80;;
18395;SDS011;76377;45.194;5.734;2024-03-08T02:44:42;9.50;;;8.50;;
18395;SDS011;76377;45.194;5.734;2024-03-08T02:47:10;10.23;;;9.10;;
18395;SDS011;76377;45.194;5.734;2024-03-08T02:49:37;12.07;;;9.00;;
18395;SDS011;76377;45.194;5.734;2024-03-08T02:52:04;11.07;;;9.50;;
18395;SDS011;76377;45.194;5.734;2024-03-08T02:54:32;9.83;;;8.70;;
18395;SDS011;76377;45.194;5.734;2024-03-08T02:57:01;9.80;;;8.80;;
18395;SDS011;76377;45.194;5.734;2024-03-08T02:59:29;9.67;;;8.70;;
18395;SDS011;76377;45.194;5.734;2024-03-08T03:01:56;10.13;;;8.90;;
18395;SDS011;76377;45.194;5.734;2024-03-08T03:04:24;12.03;;;8.70;;
18395;SDS011;76377;45.194;5.734;2024-03-08T03:06:52;9.77;;;7.97;;
18395;SDS011;76377;45.194;5.734;2024-03-08T03:09:20;10.77;;;8.10;;
18395;SDS011;76377;45.194;5.734;2024-03-08T03:11:53;10.80;;;8.40;;
18395;SDS011;76377;45.194;5.734;2024-03-08T03:14:22;9.87;;;8.73;;
18395;SDS011;76377;45.194;5.734;2024-03-08T03:16:50;13.60;;;9.40;;
18395;SDS011;76377;45.194;5.734;2024-03-08T03:19:17;11.20;;;9.50;;
18395;SDS011;76377;45.194;5.734;2024-03-08T03:21:44;11.73;;;9.20;;
18395;SDS011;76377;45.194;5.734;2024-03-08T03:24:11;11.20;;;10.00;;
18395;SDS011;76377;45.194;5.734;2024-03-08T03:26:41;11.80;;;9.07;;
18395;SDS011;76377;45.194;5.734;2024-03-08T03:29:09;10.23;;;9.17;;
18395;SDS011;76377;45.194;5.734;2024-03-08T03:31:37;12.53;;;9.60;;
18395;SDS011;76377;45.194;5.734;2024-03-08T03:34:05;10.50;;;9.17;;
18395;SDS011;76377;45.194;5.734;2024-03-08T03:36:34;12.53;;;9.67;;
18395;SDS011;76377;45.194;5.734;2024-03-08T03:39:03;10.57;;;9.50;;
18395;SDS011;76377;45.194;5.734;2024-03-08T03:41:36;11.17;;;9.97;;
18395;SDS011;76377;45.194;5.734;2024-03-08T03:44:04;11.33;;;9.33;;
18395;SDS011;76377;45.194;5.734;2024-03-08T03:46:32;11.17;;;9.93;;
18395;SDS011;76377;45.194;5.734;2024-03-08T03:49:00;12.07;;;9.60;;
18395;SDS011;76377;45.194;5.734;2024-03-08T03:51:29;13.07;;;10.50;;
18395;SDS011;76377;45.194;5.734;2024-03-08T03:53:56;11.50;;;9.50;;
18395;SDS011;76377;45.194;5.734;2024-03-08T03:56:25;11.27;;;10.07;;
18395;SDS011;76377;45.194;5.734;2024-03-08T03:58:53;10.67;;;9.57;;
18395;SDS011;76377;45.194;5.734;2024-03-08T04:01:20;12.37;;;9.67;;
18395;SDS011;76377;45.194;5.734;2024-03-08T04:03:47;11.67;;;10.47;;
18395;SDS011;76377;45.194;5.734;2024-03-08T04:06:16;11.67;;;10.30;;
18395;SDS011;76377;45.194;5.734;2024-03-08T04:08:43;11.50;;;10.20;;
18395;SDS011;76377;45.194;5.734;2024-03-08T04:11:11;12.20;;;10.50;;
18395;SDS011;76377;45.194;5.734;2024-03-08T04:13:38;11.37;;;10.17;;
18395;SDS011;76377;45.194;5.734;2024-03-08T04:16:05;12.13;;;10.30;;
18395;SDS011;76377;45.194;5.734;2024-03-08T04:18:34;11.17;;;9.80;;
18395;SDS011;76377;45.194;5.734;2024-03-08T04:21:03;15.00;;;11.40;;
18395;SDS011;76377;45.194;5.734;2024-03-08T04:23:34;11.63;;;10.43;;
18395;SDS011;76377;45.194;5.734;2024-03-08T04:26:02;12.87;;;10.87;;
18395;SDS011;76377;45.194;5.734;2024-03-08T04:28:31;11.73;;;9.77;;
18395;SDS011;76377;45.194;5.734;2024-03-08T04:30:58;14.67;;;10.90;;
18395;SDS011;76377;45.194;5.734;2024-03-08T04:33:27;12.50;;;11.20;;
18395;SDS011;76377;45.194;5.734;2024-03-08T04:35:54;13.00;;;11.37;;
18395;SDS011;76377;45.194;5.734;2024-03-08T04:38:21;11.87;;;10.63;;
18395;SDS011;76377;45.194;5.734;2024-03-08T04:40:51;12.00;;;10.70;;
18395;SDS011;76377;45.194;5.734;2024-03-08T04:43:18;14.90;;;10.57;;
18395;SDS011;76377;45.194;5.734;2024-03-08T04:45:47;11.53;;;9.67;;
18395;SDS011;76377;45.194;5.734;2024-03-08T04:48:14;13.33;;;10.70;;
18395;SDS011;76377;45.194;5.734;2024-03-08T04:50:41;12.40;;;11.10;;
18395;SDS011;76377;45.194;5.734;2024-03-08T04:53:10;12.43;;;10.73;;
18395;SDS011;76377;45.194;5.734;2024-03-08T04:55:37;12.90;;;10.83;;
18395;SDS011;76377;45.194;5.734;2024-03-08T04:58:06;12.93;;;10.87;;
18395;SDS011;76377;45.194;5.734;2024-03-08T05:00:33;13.43;;;10.90;;
18395;SDS011;76377;45.194;5.734;2024-03-08T05:03:00;14.17;;;11.43;;
18395;SDS011;76377;45.194;5.734;2024-03-08T05:05:28;14.40;;;11.50;;
18395;SDS011;76377;45.194;5.734;2024-03-08T05:07:55;15.47;;;11.03;;
18395;SDS011;76377;45.194;5.734;2024-03-08T05:10:23;15.07;;;11.13;;
18395;SDS011;76377;45.194;5.734;2024-03-08T05:12:50;13.00;;;11.00;;
18395;SDS011;76377;45.194;5.734;2024-03-08T05:15:18;13.20;;;11.80;;
18395;SDS011;76377;45.194;5.734;2024-03-08T05:17:49;14.83;;;11.23;;
18395;SDS011;76377;45.194;5.734;2024-03-08T05:20:16;15.03;;;11.60;;
18395;SDS011;76377;45.194;5.734;2024-03-08T05:22:45;15.07;;;11.27;;
18395;SDS011;76377;45.194;5.734;2024-03-08T05:25:12;13.20;;;11.10;;
18395;SDS011;76377;45.194;5.734;2024-03-08T05:27:39;12.97;;;10.73;;
18395;SDS011;76377;45.194;5.734;2024-03-08T05:30:07;13.60;;;11.20;;
18395;SDS011;76377;45.194;5.734;2024-03-08T05:32:41;13.90;;;11.50;;
18395;SDS011;76377;45.194;5.734;2024-03-08T05:35:10;12.30;;;10.80;;
18395;SDS011;76377;45.194;5.734;2024-03-08T05:37:37;13.97;;;11.03;;
18395;SDS011;76377;45.194;5.734;2024-03-08T05:40:05;11.97;;;10.60;;
18395;SDS011;76377;45.194;5.734;2024-03-08T05:42:35;15.23;;;12.00;;
18395;SDS011;76377;45.194;5.734;2024-03-08T05:45:03;12.83;;;10.90;;
18395;SDS011;76377;45.194;5.734;2024-03-08T05:47:31;12.17;;;9.97;;
18395;SDS011;76377;45.194;5.734;2024-03-08T05:50:00;11.70;;;9.30;;
18395;SDS011;76377;45.194;5.734;2024-03-08T05:52:28;10.47;;;8.37;;
18395;SDS011;76377;45.194;5.734;2024-03-08T05:54:56;13.70;;;10.03;;
18395;SDS011;76377;45.194;5.734;2024-03-08T05:57:23;15.43;;;10.20;;
18395;SDS011;76377;45.194;5.734;2024-03-08T05:59:50;12.83;;;10.00;;
18395;SDS011;76377;45.194;5.734;2024-03-08T06:02:17;11.53;;;10.13;;
18395;SDS011;76377;45.194;5.734;2024-03-08T06:04:45;11.67;;;10.17;;
18395;SDS011;76377;45.194;5.734;2024-03-08T06:07:14;11.40;;;9.03;;
18395;SDS011;76377;45.194;5.734;2024-03-08T06:09:43;11.27;;;9.67;;
18395;SDS011;76377;45.194;5.734;2024-03-08T06:12:12;14.50;;;9.80;;
18395;SDS011;76377;45.194;5.734;2024-03-08T06:14:44;12.43;;;9.93;;
18395;SDS011;76377;45.194;5.734;2024-03-08T06:17:11;12.17;;;10.43;;
18395;SDS011;76377;45.194;5.734;2024-03-08T06:19:39;12.67;;;10.57;;
18395;SDS011;76377;45.194;5.734;2024-03-08T06:22:06;14.17;;;10.40;;
18395;SDS011;76377;45.194;5.734;2024-03-08T06:24:36;15.40;;;11.40;;
18395;SDS011;76377;45.194;5.734;2024-03-08T06:27:03;14.70;;;11.30;;
18395;SDS011;76377;45.194;5.734;2024-03-08T06:29:31;14.53;;;11.67;;
18395;SDS011;76377;45.194;5.734;2024-03-08T06:31:58;15.87;;;12.37;;
18395;SDS011;76377;45.194;5.734;2024-03-08T06:34:26;13.43;;;10.80;;
18395;SDS011;76377;45.194;5.734;2024-03-08T06:36:53;16.73;;;12.40;;
18395;SDS011;76377;45.194;5.734;2024-03-08T06:39:26;14.73;;;11.73;;
18395;SDS011;76377;45.194;5.734;2024-03-08T06:41:57;14.53;;;11.53;;
18395;SDS011;76377;45.194;5.734;2024-03-08T06:44:24;15.13;;;11.77;;
18395;SDS011;76377;45.194;5.734;2024-03-08T06:46:52;13.07;;;10.97;;
18395;SDS011;76377;45.194;5.734;2024-03-08T06:49:19;15.67;;;11.77;;
18395;SDS011;76377;45.194;5.734;2024-03-08T06:51:46;13.83;;;11.60;;
18395;SDS011;76377;45.194;5.734;2024-03-08T06:54:14;14.90;;;12.23;;
18395;SDS011;76377;45.194;5.734;2024-03-08T06:56:41;16.50;;;11.80;;
18395;SDS011;76377;45.194;5.734;2024-03-08T06:59:10;14.87;;;12.20;;
18395;SDS011;76377;45.194;5.734;2024-03-08T07:01:37;16.87;;;12.47;;
18395;SDS011;76377;45.194;5.734;2024-03-08T07:04:04;16.90;;;12.03;;
18395;SDS011;76377;45.194;5.734;2024-03-08T07:06:32;14.13;;;11.63;;
18395;SDS011;76377;45.194;5.734;2024-03-08T07:08:59;19.43;;;11.60;;
18395;SDS011;76377;45.194;5.734;2024-03-08T07:11:27;15.80;;;12.03;;
18395;SDS011;76377;45.194;5.734;2024-03-08T07:13:55;15.23;;;12.00;;
18395;SDS011;76377;45.194;5.734;2024-03-08T07:16:24;13.73;;;12.13;;
18395;SDS011;76377;45.194;5.734;2024-03-08T07:18:55;16.73;;;12.60;;
18395;SDS011;76377;45.194;5.734;2024-03-08T07:21:24;16.33;;;12.77;;
18395;SDS011;76377;45.194;5.734;2024-03-08T07:23:51;13.63;;;12.17;;
18395;SDS011;76377;45.194;5.734;2024-03-08T07:26:43;15.40;;;12.80;;
18395;SDS011;76377;45.194;5.734;2024-03-08T07:29:14;16.90;;;13.10;;
18395;SDS011;76377;45.194;5.734;2024-03-08T07:31:43;15.23;;;13.17;;
18395;SDS011;76377;45.194;5.734;2024-03-08T07:34:16;15.47;;;13.30;;
18395;SDS011;76377;45.194;5.734;2024-03-08T07:36:43;18.77;;;14.13;;
18395;SDS011;76377;45.194;5.734;2024-03-08T07:39:11;17.53;;;13.67;;
18395;SDS011;76377;45.194;5.734;2024-03-08T07:41:39;19.67;;;13.97;;
18395;SDS011;76377;45.194;5.734;2024-03-08T07:44:06;16.87;;;14.00;;
18395;SDS011;76377;45.194;5.734;2024-03-08T07:46:34;15.67;;;13.40;;
18395;SDS011;76377;45.194;5.734;2024-03-08T07:49:03;19.27;;;14.47;;
18395;SDS011;76377;45.194;5.734;2024-03-08T07:51:31;18.77;;;14.40;;
18395;SDS011;76377;45.194;5.734;2024-03-08T07:54:00;17.57;;;14.17;;
18395;SDS011;76377;45.194;5.734;2024-03-08T07:56:29;18.03;;;13.70;;
18395;SDS011;76377;45.194;5.734;2024-03-08T07:58:56;16.67;;;14.63;;
18395;SDS011;76377;45.194;5.734;2024-03-08T08:01:24;18.27;;;14.40;;
18395;SDS011;76377;45.194;5.734;2024-03-08T08:03:51;18.87;;;15.37;;
18395;SDS011;76377;45.194;5.734;2024-03-08T08:06:20;17.87;;;14.87;;
18395;SDS011;76377;45.194;5.734;2024-03-08T08:08:56;19.83;;;14.63;;
18395;SDS011;76377;45.194;5.734;2024-03-08T08:11:31;19.40;;;15.40;;
18395;SDS011;76377;45.194;5.734;2024-03-08T08:13:59;18.57;;;14.03;;
18395;SDS011;76377;45.194;5.734;2024-03-08T08:16:26;17.47;;;13.67;;
18395;SDS011;76377;45.194;5.734;2024-03-08T08:18:54;17.07;;;13.93;;
18395;SDS011;76377;45.194;5.734;2024-03-08T08:21:22;18.00;;;14.17;;
18395;SDS011;76377;45.194;5.734;2024-03-08T08:23:51;17.73;;;14.20;;
18395;SDS011;76377;45.194;5.734;2024-03-08T08:26:18;19.17;;;13.30;;
18395;SDS011;76377;45.194;5.734;2024-03-08T08:28:46;19.03;;;14.37;;
18395;SDS011;76377;45.194;5.734;2024-03-08T08:31:14;17.90;;;13.23;;
18395;SDS011;76377;45.194;5.734;2024-03-08T08:33:42;18.17;;;14.20;;
18395;SDS011;76377;45.194;5.734;2024-03-08T08:36:09;16.67;;;14.87;;
18395;SDS011;76377;45.194;5.734;2024-03-08T08:38:38;16.43;;;14.07;;
18395;SDS011;76377;45.194;5.734;2024-03-08T08:41:05;15.97;;;13.80;;
18395;SDS011;76377;45.194;5.734;2024-03-08T08:43:32;16.13;;;12.93;;
18395;SDS011;76377;45.194;5.734;2024-03-08T08:46:00;15.97;;;14.27;;
18395;SDS011;76377;45.194;5.734;2024-03-08T08:48:27;16.63;;;13.57;;
18395;SDS011;76377;45.194;5.734;2024-03-08T08:50:56;14.50;;;12.97;;
18395;SDS011;76377;45.194;5.734;2024-03-08T08:53:23;15.77;;;12.70;;
18395;SDS011;76377;45.194;5.734;2024-03-08T08:55:52;13.37;;;11.97;;
18395;SDS011;76377;45.194;5.734;2024-03-08T08:58:19;14.70;;;12.30;;
18395;SDS011;76377;45.194;5.734;2024-03-08T09:00:47;14.30;;;12.63;;
18395;SDS011;76377;45.194;5.734;2024-03-08T09:03:15;13.77;;;12.37;;
18395;SDS011;76377;45.194;5.734;2024-03-08T09:05:42;13.97;;;12.57;;
18395;SDS011;76377;45.194;5.734;2024-03-08T09:08:10;12.63;;;11.33;;
18395;SDS011;76377;45.194;5.734;2024-03-08T09:10:38;13.00;;;11.67;;
18395;SDS011;76377;45.194;5.734;2024-03-08T09:13:07;14.77;;;12.50;;
18395;SDS011;76377;45.194;5.734;2024-03-08T09:15:35;14.07;;;12.77;;
18395;SDS011;76377;45.194;5.734;2024-03-08T09:18:05;13.30;;;11.90;;
18395;SDS011;76377;45.194;5.734;2024-03-08T09:20:33;13.17;;;11.90;;
18395;SDS011;76377;45.194;5.734;2024-03-08T09:23:02;13.90;;;12.50;;
18395;SDS011;76377;45.194;5.734;2024-03-08T09:25:30;12.77;;;11.43;;
18395;SDS011;76377;45.194;5.734;2024-03-08T09:27:58;15.80;;;11.67;;
18395;SDS011;76377;45.194;5.734;2024-03-08T09:30:26;13.20;;;11.80;;
18395;SDS011;76377;45.194;5.734;2024-03-08T09:32:54;13.70;;;11.90;;
18395;SDS011;76377;45.194;5.734;2024-03-08T09:35:21;12.77;;;11.47;;
18395;SDS011;76377;45.194;5.734;2024-03-08T09:37:48;12.97;;;11.57;;
18395;SDS011;76377;45.194;5.734;2024-03-08T09:40:17;13.13;;;11.57;;
18395;SDS011;76377;45.194;5.734;2024-03-08T09:42:45;12.47;;;11.17;;
18395;SDS011;76377;45.194;5.734;2024-03-08T09:45:12;12.90;;;11.53;;
18395;SDS011;76377;45.194;5.734;2024-03-08T09:47:42;13.00;;;11.47;;
18395;SDS011;76377;45.194;5.734;2024-03-08T09:50:10;12.60;;;10.70;;
18395;SDS011;76377;45.194;5.734;2024-03-08T09:52:39;13.30;;;10.83;;
18395;SDS011;76377;45.194;5.734;2024-03-08T09:55:07;13.60;;;10.33;;
18395;SDS011;76377;45.194;5.734;2024-03-08T09:57:36;12.73;;;10.30;;
18395;SDS011;76377;45.194;5.734;2024-03-08T10:00:05;13.67;;;10.90;;
18395;SDS011;76377;45.194;5.734;2024-03-08T10:02:46;13.10;;;10.10;;
18395;SDS011;76377;45.194;5.734;2024-03-08T10:05:13;12.93;;;10.73;;
18395;SDS011;76377;45.194;5.734;2024-03-08T10:07:41;12.67;;;11.07;;
18395;SDS011;76377;45.194;5.734;2024-03-08T10:10:08;14.13;;;10.33;;
18395;SDS011;76377;45.194;5.734;2024-03-08T10:12:37;13.50;;;10.30;;
18395;SDS011;76377;45.194;5.734;2024-03-08T10:15:05;13.63;;;10.87;;
18395;SDS011;76377;45.194;5.734;2024-03-08T10:17:34;11.37;;;10.17;;
18395;SDS011;76377;45.194;5.734;2024-03-08T10:20:03;11.03;;;9.83;;
18395;SDS011;76377;45.194;5.734;2024-03-08T10:22:40;10.90;;;9.37;;
18395;SDS011;76377;45.194;5.734;2024-03-08T10:25:08;12.87;;;9.77;;
18395;SDS011;76377;45.194;5.734;2024-03-08T10:27:37;12.23;;;10.03;;
18395;SDS011;76377;45.194;5.734;2024-03-08T10:30:06;10.40;;;9.13;;
18395;SDS011;76377;45.194;5.734;2024-03-08T10:32:38;10.40;;;9.20;;
18395;SDS011;76377;45.194;5.734;2024-03-08T10:35:08;10.17;;;9.17;;
18395;SDS011;76377;45.194;5.734;2024-03-08T10:37:39;11.27;;;9.03;;
18395;SDS011;76377;45.194;5.734;2024-03-08T10:40:14;11.40;;;8.47;;
18395;SDS011;76377;45.194;5.734;2024-03-08T10:42:47;10.23;;;8.83;;
18395;SDS011;76377;45.194;5.734;2024-03-08T10:45:23;9.80;;;8.27;;
18395;SDS011;76377;45.194;5.734;2024-03-08T10:48:10;10.70;;;7.30;;
18395;SDS011;76377;45.194;5.734;2024-03-08T10:50:50;8.23;;;7.50;;
18395;SDS011;76377;45.194;5.734;2024-03-08T10:53:20;8.53;;;7.43;;
18395;SDS011;76377;45.194;5.734;2024-03-08T10:55:49;8.23;;;7.43;;
18395;SDS011;76377;45.194;5.734;2024-03-08T10:58:19;8.67;;;7.77;;
18395;SDS011;76377;45.194;5.734;2024-03-08T11:00:47;8.50;;;7.00;;
18395;SDS011;76377;45.194;5.734;2024-03-08T11:06:14;13.93;;;8.37;;
18395;SDS011;76377;45.194;5.734;2024-03-08T11:08:43;9.40;;;7.60;;
18395;SDS011;76377;45.194;5.734;2024-03-08T11:13:55;9.50;;;7.60;;
18395;SDS011;76377;45.194;5.734;2024-03-08T11:16:36;9.33;;;7.60;;
18395;SDS011;76377;45.194;5.734;2024-03-08T11:19:06;11.23;;;7.90;;
18395;SDS011;76377;45.194;5.734;2024-03-08T11:21:58;9.37;;;8.43;;
18395;SDS011;76377;45.194;5.734;2024-03-08T11:24:26;12.33;;;8.73;;
18395;SDS011;76377;45.194;5.734;2024-03-08T11:26:56;10.37;;;8.23;;
18395;SDS011;76377;45.194;5.734;2024-03-08T11:29:37;10.30;;;8.37;;
18395;SDS011;76377;45.194;5.734;2024-03-08T11:32:06;10.97;;;8.70;;
18395;SDS011;76377;45.194;5.734;2024-03-08T11:34:34;8.77;;;7.87;;
18395;SDS011;76377;45.194;5.734;2024-03-08T11:37:05;10.63;;;8.90;;
18395;SDS011;76377;45.194;5.734;2024-03-08T11:39:38;10.53;;;9.53;;
18395;SDS011;76377;45.194;5.734;2024-03-08T11:42:06;11.20;;;9.23;;
18395;SDS011;76377;45.194;5.734;2024-03-08T11:44:33;11.30;;;9.30;;
18395;SDS011;76377;45.194;5.734;2024-03-08T11:47:01;10.43;;;9.33;;
18395;SDS011;76377;45.194;5.734;2024-03-08T11:49:31;11.73;;;10.00;;
18395;SDS011;76377;45.194;5.734;2024-03-08T11:51:59;11.30;;;9.13;;
18395;SDS011;76377;45.194;5.734;2024-03-08T11:54:29;10.00;;;9.00;;
18395;SDS011;76377;45.194;5.734;2024-03-08T11:56:57;11.27;;;10.17;;
18395;SDS011;76377;45.194;5.734;2024-03-08T11:59:27;12.57;;;10.87;;
18395;SDS011;76377;45.194;5.734;2024-03-08T12:01:59;12.07;;;10.23;;
18395;SDS011;76377;45.194;5.734;2024-03-08T12:04:28;12.57;;;9.97;;
18395;SDS011;76377;45.194;5.734;2024-03-08T12:06:57;11.03;;;9.77;;
18395;SDS011;76377;45.194;5.734;2024-03-08T12:09:27;10.90;;;9.80;;
18395;SDS011;76377;45.194;5.734;2024-03-08T12:11:58;11.00;;;9.67;;
18395;SDS011;76377;45.194;5.734;2024-03-08T12:14:26;12.63;;;10.10;;
18395;SDS011;76377;45.194;5.734;2024-03-08T12:16:53;11.10;;;9.83;;
18395;SDS011;76377;45.194;5.734;2024-03-08T12:19:20;10.40;;;9.30;;
18395;SDS011;76377;45.194;5.734;2024-03-08T12:21:48;10.73;;;9.63;;
18395;SDS011;76377;45.194;5.734;2024-03-08T12:24:16;10.27;;;9.27;;
18395;SDS011;76377;45.194;5.734;2024-03-08T12:26:46;9.93;;;8.63;;
18395;SDS011;76377;45.194;5.734;2024-03-08T12:29:16;10.27;;;9.13;;
18395;SDS011;76377;45.194;5.734;2024-03-08T12:31:48;9.03;;;8.10;;
18395;SDS011;76377;45.194;5.734;2024-03-08T12:34:18;9.63;;;8.60;;
18395;SDS011;76377;45.194;5.734;2024-03-08T12:36:46;9.13;;;8.03;;
18395;SDS011;76377;45.194;5.734;2024-03-08T12:39:15;9.93;;;8.93;;
18395;SDS011;76377;45.194;5.734;2024-03-08T12:41:49;10.03;;;8.97;;
18395;SDS011;76377;45.194;5.734;2024-03-08T12:44:17;11.07;;;8.07;;
18395;SDS011;76377;45.194;5.734;2024-03-08T12:46:44;9.17;;;7.97;;
18395;SDS011;76377;45.194;5.734;2024-03-08T12:49:11;12.63;;;8.07;;
18395;SDS011;76377;45.194;5.734;2024-03-08T12:51:42;9.10;;;8.20;;
18395;SDS011;76377;45.194;5.734;2024-03-08T12:54:10;11.87;;;8.10;;
18395;SDS011;76377;45.194;5.734;2024-03-08T12:56:38;9.70;;;8.70;;
18395;SDS011;76377;45.194;5.734;2024-03-08T12:59:07;10.03;;;8.73;;
18395;SDS011;76377;45.194;5.734;2024-03-08T13:01:35;9.53;;;8.63;;
18395;SDS011;76377;45.194;5.734;2024-03-08T13:04:03;9.97;;;8.53;;
18395;SDS011;76377;45.194;5.734;2024-03-08T13:06:32;10.03;;;8.57;;
18395;SDS011;76377;45.194;5.734;2024-03-08T13:09:01;8.20;;;7.40;;
18395;SDS011;76377;45.194;5.734;2024-03-08T13:11:31;10.60;;;8.83;;
18395;SDS011;76377;45.194;5.734;2024-03-08T13:14:02;11.07;;;8.33;;
18395;SDS011;76377;45.194;5.734;2024-03-08T13:16:32;10.97;;;8.50;;
18395;SDS011;76377;45.194;5.734;2024-03-08T13:19:00;8.77;;;7.83;;
18395;SDS011;76377;45.194;5.734;2024-03-08T13:21:27;10.67;;;8.67;;
18395;SDS011;76377;45.194;5.734;2024-03-08T13:23:55;10.73;;;9.63;;
18395;SDS011;76377;45.194;5.734;2024-03-08T13:26:24;9.60;;;8.60;;
18395;SDS011;76377;45.194;5.734;2024-03-08T13:28:58;10.77;;;8.27;;
18395;SDS011;76377;45.194;5.734;2024-03-08T13:31:25;10.07;;;8.33;;
18395;SDS011;76377;45.194;5.734;2024-03-08T13:33:54;9.07;;;8.17;;
18395;SDS011;76377;45.194;5.734;2024-03-08T13:36:23;9.80;;;8.30;;
18395;SDS011;76377;45.194;5.734;2024-03-08T13:38:54;9.37;;;8.47;;
18395;SDS011;76377;45.194;5.734;2024-03-08T13:41:24;8.77;;;7.70;;
18395;SDS011;76377;45.194;5.734;2024-03-08T13:43:51;12.13;;;8.03;;
18395;SDS011;76377;45.194;5.734;2024-03-08T13:46:21;10.67;;;8.73;;
18395;SDS011;76377;45.194;5.734;2024-03-08T13:48:49;10.13;;;9.13;;
18395;SDS011;76377;45.194;5.734;2024-03-08T13:51:20;9.40;;;8.50;;
18395;SDS011;76377;45.194;5.734;2024-03-08T13:53:48;12.37;;;9.00;;
18395;SDS011;76377;45.194;5.734;2024-03-08T13:56:15;10.80;;;8.37;;
18395;SDS011;76377;45.194;5.734;2024-03-08T13:58:42;9.83;;;8.67;;
18395;SDS011;76377;45.194;5.734;2024-03-08T14:01:10;9.90;;;8.40;;
18395;SDS011;76377;45.194;5.734;2024-03-08T14:03:38;11.03;;;8.50;;
18395;SDS011;76377;45.194;5.734;2024-03-08T14:06:07;7.30;;;6.60;;
18395;SDS011;76377;45.194;5.734;2024-03-08T14:08:36;9.30;;;7.23;;
18395;SDS011;76377;45.194;5.734;2024-03-08T14:11:04;3.40;;;3.10;;
18395;SDS011;76377;45.194;5.734;2024-03-08T14:13:40;2.97;;;2.77;;
18395;SDS011;76377;45.194;5.734;2024-03-08T14:16:09;3.80;;;2.97;;
18395;SDS011;76377;45.194;5.734;2024-03-08T14:18:37;6.43;;;4.77;;
18395;SDS011;76377;45.194;5.734;2024-03-08T14:21:05;5.73;;;4.97;;
18395;SDS011;76377;45.194;5.734;2024-03-08T14:23:32;4.03;;;2.90;;
18395;SDS011;76377;45.194;5.734;2024-03-08T14:26:03;3.13;;;2.63;;
18395;SDS011;76377;45.194;5.734;2024-03-08T14:28:32;2.50;;;2.30;;
18395;SDS011;76377;45.194;5.734;2024-03-08T14:31:00;3.47;;;3.17;;
18395;SDS011;76377;45.194;5.734;2024-03-08T14:33:28;3.20;;;2.90;;
18395;SDS011;76377;45.194;5.734;2024-03-08T14:35:56;2.13;;;1.93;;
18395;SDS011;76377;45.194;5.734;2024-03-08T14:38:24;3.67;;;2.27;;
18395;SDS011;76377;45.194;5.734;2024-03-08T14:40:53;2.10;;;1.90;;
18395;SDS011;76377;45.194;5.734;2024-03-08T14:43:22;2.60;;;2.37;;
18395;SDS011;76377;45.194;5.734;2024-03-08T14:45:49;3.07;;;1.80;;
18395;SDS011;76377;45.194;5.734;2024-03-08T14:48:18;2.60;;;1.73;;